KSAF/SAF METAR and TAF weather

Enter ICAO airport designator
Station Type Date Time Source
KSAF METAR 2021/07/24 21:24 UTC NOAA

KSAF 242124Z 35010KT 10SM FEW060 BKN075 OVC095 19/16 A3027 RMK AO2 RAB2057E11 P0000 T01890161


Station Type Date Time Source
KSAF Decoded METAR 2021/07/24 21:24 UTC NOAA

SANTA FE COUNTY MUNICIPAL, NM, United States (KSAF) 35-37N 106-05W 1930M
Jul 24, 2021 - 05:24 PM EDT / 2021.07.24 2124 UTC
Wind: from the N (350 degrees) at 12 MPH (10 KT):0
Visibility: 10 mile(s):0
Sky conditions: overcast
Precipitation last hour: A trace
Temperature: 66.0 F (18.9 C)
Dew Point: 61.0 F (16.1 C)
Relative Humidity: 83%
Pressure (altimeter): 30.27 in. Hg (1025 hPa)
ob: KSAF 242124Z 35010KT 10SM FEW060 BKN075 OVC095 19/16 A3027 RMK AO2 RAB2057E11 P0000 T01890161
cycle: 21

Station Type Date Time Source
KSAF TAF 2021/07/24 18:24 UTC NOAA

TAF KSAF 241723Z 2418/2518 VRB05KT P6SM VCSH OVC090
FM241900 15009KT P6SM VCSH SCT060 OVC100
TEMPO 2419/2423 VRB15G25KT 5SM -TSRA OVC040CB
FM242300 15011G19KT P6SM VCSH BKN050 OVC120
FM250400 VRB06KT P6SM SCT040 BKN100
FM250800 02006KT P6SM FEW025 SCT080 BKN120

Example: see airport list